sensor_id;sensor_type;location;lat;lon;timestamp;pressure;altitude;pressure_sealevel;temperature;humidity
51468;BME280;37545;45.302;-122.946;2023-03-13T00:01:24;100193.50;;;10.26;100.00
51468;BME280;37545;45.302;-122.946;2023-03-13T00:03:53;100184.06;;;10.26;100.00
51468;BME280;37545;45.302;-122.946;2023-03-13T00:06:22;100182.44;;;10.30;100.00
51468;BME280;37545;45.302;-122.946;2023-03-13T00:08:53;100182.53;;;10.35;100.00
51468;BME280;37545;45.302;-122.946;2023-03-13T00:11:22;100175.81;;;10.43;100.00
51468;BME280;37545;45.302;-122.946;2023-03-13T00:13:53;100161.16;;;10.43;100.00
51468;BME280;37545;45.302;-122.946;2023-03-13T00:16:22;100164.59;;;10.44;100.00
51468;BME280;37545;45.302;-122.946;2023-03-13T00:18:52;100167.19;;;10.44;100.00
51468;BME280;37545;45.302;-122.946;2023-03-13T00:21:23;100166.38;;;10.46;100.00
51468;BME280;37545;45.302;-122.946;2023-03-13T00:23:54;100158.66;;;10.48;100.00
51468;BME280;37545;45.302;-122.946;2023-03-13T00:26:24;100170.81;;;10.52;100.00
51468;BME280;37545;45.302;-122.946;2023-03-13T00:28:53;100157.03;;;10.53;100.00
51468;BME280;37545;45.302;-122.946;2023-03-13T00:31:22;100157.03;;;10.53;100.00
51468;BME280;37545;45.302;-122.946;2023-03-13T00:33:52;100157.88;;;10.52;100.00
51468;BME280;37545;45.302;-122.946;2023-03-13T00:36:22;100161.41;;;10.56;100.00
51468;BME280;37545;45.302;-122.946;2023-03-13T00:38:53;100151.13;;;10.59;100.00
51468;BME280;37545;45.302;-122.946;2023-03-13T00:41:23;100138.19;;;10.60;100.00
51468;BME280;37545;45.302;-122.946;2023-03-13T00:43:53;100140.78;;;10.60;100.00
51468;BME280;37545;45.302;-122.946;2023-03-13T00:46:23;100140.78;;;10.59;100.00
51468;BME280;37545;45.302;-122.946;2023-03-13T00:48:52;100143.47;;;10.63;100.00
51468;BME280;37545;45.302;-122.946;2023-03-13T00:51:21;100134.91;;;10.67;100.00
51468;BME280;37545;45.302;-122.946;2023-03-13T00:53:53;100143.63;;;10.73;100.00
51468;BME280;37545;45.302;-122.946;2023-03-13T00:56:22;100140.25;;;10.77;100.00
51468;BME280;37545;45.302;-122.946;2023-03-13T00:58:51;100133.41;;;10.80;100.00
51468;BME280;37545;45.302;-122.946;2023-03-13T01:01:21;100134.34;;;10.84;100.00
51468;BME280;37545;45.302;-122.946;2023-03-13T01:03:51;100134.44;;;10.88;100.00
51468;BME280;37545;45.302;-122.946;2023-03-13T01:06:23;100129.34;;;10.93;100.00
51468;BME280;37545;45.302;-122.946;2023-03-13T01:08:54;100124.22;;;10.96;100.00
51468;BME280;37545;45.302;-122.946;2023-03-13T01:11:24;100129.47;;;11.01;100.00
51468;BME280;37545;45.302;-122.946;2023-03-13T01:13:54;100125.22;;;11.04;100.00
51468;BME280;37545;45.302;-122.946;2023-03-13T01:16:24;100127.91;;;11.09;100.00
51468;BME280;37545;45.302;-122.946;2023-03-13T01:18:55;100123.63;;;11.13;100.00
51468;BME280;37545;45.302;-122.946;2023-03-13T01:21:24;100123.69;;;11.16;100.00
51468;BME280;37545;45.302;-122.946;2023-03-13T01:23:54;100121.97;;;11.18;100.00
51468;BME280;37545;45.302;-122.946;2023-03-13T01:26:24;100125.47;;;11.20;100.00
51468;BME280;37545;45.302;-122.946;2023-03-13T01:28:53;100124.56;;;11.18;100.00
51468;BME280;37545;45.302;-122.946;2023-03-13T01:31:23;100122.88;;;11.18;100.00
51468;BME280;37545;45.302;-122.946;2023-03-13T01:33:54;100118.56;;;11.19;100.00
51468;BME280;37545;45.302;-122.946;2023-03-13T01:36:23;100123.75;;;11.19;100.00
51468;BME280;37545;45.302;-122.946;2023-03-13T01:38:55;100113.38;;;11.19;100.00
51468;BME280;37545;45.302;-122.946;2023-03-13T01:41:25;100116.81;;;11.18;100.00
51468;BME280;37545;45.302;-122.946;2023-03-13T01:43:53;100115.06;;;11.17;100.00
51468;BME280;37545;45.302;-122.946;2023-03-13T01:46:23;100115.06;;;11.17;100.00
51468;BME280;37545;45.302;-122.946;2023-03-13T01:48:56;100129.75;;;11.18;100.00
51468;BME280;37545;45.302;-122.946;2023-03-13T01:51:29;100115.06;;;11.17;100.00
51468;BME280;37545;45.302;-122.946;2023-03-13T01:54:03;100111.63;;;11.18;100.00
51468;BME280;37545;45.302;-122.946;2023-03-13T01:56:39;100109.94;;;11.18;100.00
51468;BME280;37545;45.302;-122.946;2023-03-13T01:59:13;100103.84;;;11.18;100.00
51468;BME280;37545;45.302;-122.946;2023-03-13T02:01:44;100109.03;;;11.16;100.00
51468;BME280;37545;45.302;-122.946;2023-03-13T02:04:15;100103.00;;;11.16;100.00
51468;BME280;37545;45.302;-122.946;2023-03-13T02:06:48;100103.78;;;11.13;100.00
51468;BME280;37545;45.302;-122.946;2023-03-13T02:09:22;100101.19;;;11.11;100.00
51468;BME280;37545;45.302;-122.946;2023-03-13T02:11:56;100097.69;;;11.09;100.00
51468;BME280;37545;45.302;-122.946;2023-03-13T02:14:27;100101.97;;;11.07;100.00
51468;BME280;37545;45.302;-122.946;2023-03-13T02:16:58;100101.94;;;11.04;100.00
51468;BME280;37545;45.302;-122.946;2023-03-13T02:19:30;100105.34;;;11.03;100.00
51468;BME280;37545;45.302;-122.946;2023-03-13T02:22:10;100099.28;;;11.01;100.00
51468;BME280;37545;45.302;-122.946;2023-03-13T02:24:47;100111.31;;;10.99;100.00
51468;BME280;37545;45.302;-122.946;2023-03-13T02:27:19;100100.91;;;10.96;100.00
51468;BME280;37545;45.302;-122.946;2023-03-13T02:29:49;100097.44;;;10.94;100.00
51468;BME280;37545;45.302;-122.946;2023-03-13T02:32:18;100099.19;;;10.95;100.00
51468;BME280;37545;45.302;-122.946;2023-03-13T02:34:49;100098.28;;;10.93;100.00
51468;BME280;37545;45.302;-122.946;2023-03-13T02:37:20;100099.09;;;10.92;100.00
51468;BME280;37545;45.302;-122.946;2023-03-13T02:39:50;100092.25;;;10.93;100.00
51468;BME280;37545;45.302;-122.946;2023-03-13T02:42:21;100095.69;;;10.93;100.00
51468;BME280;37545;45.302;-122.946;2023-03-13T02:44:50;100091.34;;;10.90;100.00
51468;BME280;37545;45.302;-122.946;2023-03-13T02:47:19;100092.13;;;10.88;100.00
51468;BME280;37545;45.302;-122.946;2023-03-13T02:49:48;100086.88;;;10.82;100.00
51468;BME280;37545;45.302;-122.946;2023-03-13T02:52:20;100097.22;;;10.83;100.00
51468;BME280;37545;45.302;-122.946;2023-03-13T02:54:53;100092.81;;;10.78;100.00
51468;BME280;37545;45.302;-122.946;2023-03-13T02:57:24;100102.16;;;10.69;100.00
51468;BME280;37545;45.302;-122.946;2023-03-13T02:59:53;100086.41;;;10.57;100.00
51468;BME280;37545;45.302;-122.946;2023-03-13T03:02:21;100087.34;;;10.61;100.00
51468;BME280;37545;45.302;-122.946;2023-03-13T03:04:50;100083.00;;;10.60;100.00
51468;BME280;37545;45.302;-122.946;2023-03-13T03:07:19;100076.09;;;10.60;100.00
51468;BME280;37545;45.302;-122.946;2023-03-13T03:09:47;100083.00;;;10.58;100.00
51468;BME280;37545;45.302;-122.946;2023-03-13T03:12:16;100077.81;;;10.58;100.00
51468;BME280;37545;45.302;-122.946;2023-03-13T03:14:46;100071.75;;;10.58;100.00
51468;BME280;37545;45.302;-122.946;2023-03-13T03:17:14;100083.78;;;10.56;100.00
51468;BME280;37545;45.302;-122.946;2023-03-13T03:19:43;100088.09;;;10.55;100.00
51468;BME280;37545;45.302;-122.946;2023-03-13T03:22:12;100076.06;;;10.57;100.00
51468;BME280;37545;45.302;-122.946;2023-03-13T03:24:40;100080.41;;;10.58;100.00
51468;BME280;37545;45.302;-122.946;2023-03-13T03:27:09;100075.25;;;10.58;100.00
51468;BME280;37545;45.302;-122.946;2023-03-13T03:29:37;100080.41;;;10.60;100.00
51468;BME280;37545;45.302;-122.946;2023-03-13T03:32:07;100077.88;;;10.61;100.00
51468;BME280;37545;45.302;-122.946;2023-03-13T03:34:36;100083.09;;;10.63;100.00
51468;BME280;37545;45.302;-122.946;2023-03-13T03:37:05;100077.91;;;10.64;100.00
51468;BME280;37545;45.302;-122.946;2023-03-13T03:39:33;100076.22;;;10.66;100.00
51468;BME280;37545;45.302;-122.946;2023-03-13T03:42:02;100083.16;;;10.67;100.00
51468;BME280;37545;45.302;-122.946;2023-03-13T03:44:31;100075.50;;;10.72;100.00
51468;BME280;37545;45.302;-122.946;2023-03-13T03:46:59;100076.34;;;10.73;100.00
51468;BME280;37545;45.302;-122.946;2023-03-13T03:49:29;100069.50;;;10.75;100.00
51468;BME280;37545;45.302;-122.946;2023-03-13T03:51:58;100068.63;;;10.76;100.00
51468;BME280;37545;45.302;-122.946;2023-03-13T03:54:27;100070.31;;;10.74;100.00
51468;BME280;37545;45.302;-122.946;2023-03-13T03:56:55;100068.63;;;10.76;100.00
51468;BME280;37545;45.302;-122.946;2023-03-13T03:59:24;100068.66;;;10.77;100.00
51468;BME280;37545;45.302;-122.946;2023-03-13T04:01:52;100075.63;;;10.80;100.00
51468;BME280;37545;45.302;-122.946;2023-03-13T04:04:21;100084.28;;;10.82;100.00
51468;BME280;37545;45.302;-122.946;2023-03-13T04:06:51;100085.19;;;10.85;100.00
51468;BME280;37545;45.302;-122.946;2023-03-13T04:09:20;100079.19;;;10.86;100.00
51468;BME280;37545;45.302;-122.946;2023-03-13T04:11:49;100080.06;;;10.87;100.00
51468;BME280;37545;45.302;-122.946;2023-03-13T04:14:17;100081.78;;;10.88;100.00
51468;BME280;37545;45.302;-122.946;2023-03-13T04:16:46;100080.00;;;10.84;100.00
51468;BME280;37545;45.302;-122.946;2023-03-13T04:19:16;100082.50;;;10.79;100.00
51468;BME280;37545;45.302;-122.946;2023-03-13T04:21:47;100086.72;;;10.73;100.00
51468;BME280;37545;45.302;-122.946;2023-03-13T04:24:26;100077.19;;;10.72;100.00
51468;BME280;37545;45.302;-122.946;2023-03-13T04:26:55;100077.19;;;10.72;100.00
51468;BME280;37545;45.302;-122.946;2023-03-13T04:29:24;100079.75;;;10.70;100.00
51468;BME280;37545;45.302;-122.946;2023-03-13T04:31:52;100078.00;;;10.67;100.00
51468;BME280;37545;45.302;-122.946;2023-03-13T04:34:21;100077.19;;;10.70;100.00
51468;BME280;37545;45.302;-122.946;2023-03-13T04:36:49;100074.59;;;10.72;100.00
51468;BME280;37545;45.302;-122.946;2023-03-13T04:39:18;100076.34;;;10.73;100.00
51468;BME280;37545;45.302;-122.946;2023-03-13T04:41:52;100083.25;;;10.74;100.00
51468;BME280;37545;45.302;-122.946;2023-03-13T04:44:34;100075.56;;;10.77;100.00
51468;BME280;37545;45.302;-122.946;2023-03-13T04:47:02;100075.56;;;10.78;100.00
51468;BME280;37545;45.302;-122.946;2023-03-13T04:49:31;100066.03;;;10.76;100.00
51468;BME280;37545;45.302;-122.946;2023-03-13T04:52:00;100076.56;;;10.85;100.00
51468;BME280;37545;45.302;-122.946;2023-03-13T04:54:29;100079.19;;;10.86;100.00
51468;BME280;37545;45.302;-122.946;2023-03-13T04:56:59;100075.69;;;10.84;100.00
51468;BME280;37545;45.302;-122.946;2023-03-13T04:59:28;100074.78;;;10.82;100.00
51468;BME280;37545;45.302;-122.946;2023-03-13T05:01:56;100071.38;;;10.85;100.00
51468;BME280;37545;45.302;-122.946;2023-03-13T05:04:25;100064.53;;;10.87;100.00
51468;BME280;37545;45.302;-122.946;2023-03-13T05:07:02;100064.53;;;10.87;100.00
51468;BME280;37545;45.302;-122.946;2023-03-13T05:09:33;100069.69;;;10.87;100.00
51468;BME280;37545;45.302;-122.946;2023-03-13T05:12:03;100061.97;;;10.88;100.00
51468;BME280;37545;45.302;-122.946;2023-03-13T05:14:34;100065.47;;;10.92;100.00
51468;BME280;37545;45.302;-122.946;2023-03-13T05:17:02;100063.78;;;10.93;100.00
51468;BME280;37545;45.302;-122.946;2023-03-13T05:19:31;100056.00;;;10.94;100.00
51468;BME280;37545;45.302;-122.946;2023-03-13T05:21:59;100068.16;;;10.98;100.00
51468;BME280;37545;45.302;-122.946;2023-03-13T05:24:28;100061.31;;;11.00;100.00
51468;BME280;37545;45.302;-122.946;2023-03-13T05:26:56;100057.88;;;11.03;100.00
51468;BME280;37545;45.302;-122.946;2023-03-13T05:29:26;100051.06;;;11.06;100.00
51468;BME280;37545;45.302;-122.946;2023-03-13T05:31:55;100055.41;;;11.09;100.00
51468;BME280;37545;45.302;-122.946;2023-03-13T05:34:24;100053.72;;;11.13;100.00
51468;BME280;37545;45.302;-122.946;2023-03-13T05:36:52;100053.72;;;11.13;100.00
51468;BME280;37545;45.302;-122.946;2023-03-13T05:39:21;100046.81;;;11.11;100.00
51468;BME280;37545;45.302;-122.946;2023-03-13T05:41:49;100039.91;;;11.12;100.00
51468;BME280;37545;45.302;-122.946;2023-03-13T05:44:18;100049.47;;;11.18;100.00
51468;BME280;37545;45.302;-122.946;2023-03-13T05:46:48;100043.44;;;11.16;100.00
51468;BME280;37545;45.302;-122.946;2023-03-13T05:49:16;100043.44;;;11.16;100.00
51468;BME280;37545;45.302;-122.946;2023-03-13T05:51:45;100040.84;;;11.16;100.00
51468;BME280;37545;45.302;-122.946;2023-03-13T05:54:14;100036.53;;;11.18;100.00
51468;BME280;37545;45.302;-122.946;2023-03-13T05:56:42;100039.13;;;11.18;100.00
51468;BME280;37545;45.302;-122.946;2023-03-13T05:59:14;100036.53;;;11.18;100.00
51468;BME280;37545;45.302;-122.946;2023-03-13T06:01:42;100033.06;;;11.16;100.00
51468;BME280;37545;45.302;-122.946;2023-03-13T06:04:12;100027.03;;;11.17;100.00
51468;BME280;37545;45.302;-122.946;2023-03-13T06:06:41;100026.22;;;11.19;100.00
51468;BME280;37545;45.302;-122.946;2023-03-13T06:09:09;100018.47;;;11.21;100.00
51468;BME280;37545;45.302;-122.946;2023-03-13T06:11:38;100026.31;;;11.25;100.00
51468;BME280;37545;45.302;-122.946;2023-03-13T06:14:07;100031.50;;;11.25;100.00
51468;BME280;37545;45.302;-122.946;2023-03-13T06:16:35;100030.66;;;11.28;100.00
51468;BME280;37545;45.302;-122.946;2023-03-13T06:19:04;100019.41;;;11.26;100.00
51468;BME280;37545;45.302;-122.946;2023-03-13T06:21:34;100020.34;;;11.31;100.00
51468;BME280;37545;45.302;-122.946;2023-03-13T06:24:03;100022.09;;;11.32;100.00
51468;BME280;37545;45.302;-122.946;2023-03-13T06:26:31;100023.00;;;11.36;100.00
51468;BME280;37545;45.302;-122.946;2023-03-13T06:29:01;100023.06;;;11.39;100.00
51468;BME280;37545;45.302;-122.946;2023-03-13T06:31:29;100029.13;;;11.42;100.00
51468;BME280;37545;45.302;-122.946;2023-03-13T06:33:58;100019.66;;;11.44;100.00
51468;BME280;37545;45.302;-122.946;2023-03-13T06:36:27;100020.56;;;11.46;100.00
51468;BME280;37545;45.302;-122.946;2023-03-13T06:39:00;100018.88;;;11.48;100.00
51468;BME280;37545;45.302;-122.946;2023-03-13T06:41:29;100023.22;;;11.51;100.00
51468;BME280;37545;45.302;-122.946;2023-03-13T06:43:58;100013.72;;;11.51;100.00
51468;BME280;37545;45.302;-122.946;2023-03-13T06:46:26;100010.31;;;11.52;100.00
51468;BME280;37545;45.302;-122.946;2023-03-13T06:48:56;100005.94;;;11.51;100.00
51468;BME280;37545;45.302;-122.946;2023-03-13T06:51:24;99997.31;;;11.51;100.00
51468;BME280;37545;45.302;-122.946;2023-03-13T06:53:53;100003.38;;;11.53;100.00
51468;BME280;37545;45.302;-122.946;2023-03-13T06:56:23;99999.94;;;11.52;100.00
51468;BME280;37545;45.302;-122.946;2023-03-13T06:58:51;99993.84;;;11.52;100.00
51468;BME280;37545;45.302;-122.946;2023-03-13T07:01:20;99996.47;;;11.53;100.00
51468;BME280;37545;45.302;-122.946;2023-03-13T07:03:50;99998.25;;;11.55;100.00
51468;BME280;37545;45.302;-122.946;2023-03-13T07:06:25;99993.06;;;11.55;100.00
51468;BME280;37545;45.302;-122.946;2023-03-13T07:08:54;99994.78;;;11.56;100.00
51468;BME280;37545;45.302;-122.946;2023-03-13T07:11:24;99981.81;;;11.56;100.00
51468;BME280;37545;45.302;-122.946;2023-03-13T07:13:54;99986.13;;;11.53;100.00
51468;BME280;37545;45.302;-122.946;2023-03-13T07:16:23;99989.56;;;11.54;100.00
51468;BME280;37545;45.302;-122.946;2023-03-13T07:18:51;99984.41;;;11.56;100.00
51468;BME280;37545;45.302;-122.946;2023-03-13T07:21:20;99974.91;;;11.55;100.00
51468;BME280;37545;45.302;-122.946;2023-03-13T07:23:48;99980.97;;;11.55;100.00
51468;BME280;37545;45.302;-122.946;2023-03-13T07:26:17;99980.06;;;11.53;100.00
51468;BME280;37545;45.302;-122.946;2023-03-13T07:28:50;99985.19;;;11.48;100.00
51468;BME280;37545;45.302;-122.946;2023-03-13T07:31:20;99978.19;;;11.43;100.00
51468;BME280;37545;45.302;-122.946;2023-03-13T07:33:49;99984.19;;;11.37;100.00
51468;BME280;37545;45.302;-122.946;2023-03-13T07:36:19;99984.97;;;11.31;100.00
51468;BME280;37545;45.302;-122.946;2023-03-13T07:38:48;99980.59;;;11.29;100.00
51468;BME280;37545;45.302;-122.946;2023-03-13T07:41:17;99976.31;;;11.29;100.00
51468;BME280;37545;45.302;-122.946;2023-03-13T07:43:46;99967.66;;;11.29;100.00
51468;BME280;37545;45.302;-122.946;2023-03-13T07:46:17;99973.69;;;11.28;100.00
51468;BME280;37545;45.302;-122.946;2023-03-13T07:48:46;99973.66;;;11.26;100.00
51468;BME280;37545;45.302;-122.946;2023-03-13T07:51:17;99966.75;;;11.27;100.00
51468;BME280;37545;45.302;-122.946;2023-03-13T07:53:46;99959.84;;;11.26;100.00
51468;BME280;37545;45.302;-122.946;2023-03-13T07:56:15;99960.75;;;11.28;100.00
51468;BME280;37545;45.302;-122.946;2023-03-13T07:58:44;99959.84;;;11.26;100.00
51468;BME280;37545;45.302;-122.946;2023-03-13T08:01:18;99955.53;;;11.25;100.00
51468;BME280;37545;45.302;-122.946;2023-03-13T08:03:47;99952.94;;;11.25;100.00
51468;BME280;37545;45.302;-122.946;2023-03-13T08:06:17;99960.72;;;11.25;100.00
51468;BME280;37545;45.302;-122.946;2023-03-13T08:08:47;99956.38;;;11.27;100.00
51468;BME280;37545;45.302;-122.946;2023-03-13T08:11:17;99958.16;;;11.28;100.00
51468;BME280;37545;45.302;-122.946;2023-03-13T08:13:46;99952.09;;;11.27;100.00
51468;BME280;37545;45.302;-122.946;2023-03-13T08:16:17;99959.00;;;11.28;100.00
51468;BME280;37545;45.302;-122.946;2023-03-13T08:18:48;99956.41;;;11.28;100.00
51468;BME280;37545;45.302;-122.946;2023-03-13T08:21:18;99970.22;;;11.29;100.00
51468;BME280;37545;45.302;-122.946;2023-03-13T08:23:47;99954.69;;;11.29;100.00
51468;BME280;37545;45.302;-122.946;2023-03-13T08:26:18;99956.44;;;11.30;100.00
51468;BME280;37545;45.302;-122.946;2023-03-13T08:28:51;99959.84;;;11.26;100.00
51468;BME280;37545;45.302;-122.946;2023-03-13T08:31:23;99953.75;;;11.21;100.00
51468;BME280;37545;45.302;-122.946;2023-03-13T08:33:52;99944.16;;;11.15;100.00
51468;BME280;37545;45.302;-122.946;2023-03-13T08:36:22;99958.00;;;11.16;100.00
51468;BME280;37545;45.302;-122.946;2023-03-13T08:38:52;99958.81;;;11.15;100.00
51468;BME280;37545;45.302;-122.946;2023-03-13T08:41:22;99955.38;;;11.14;100.00
51468;BME280;37545;45.302;-122.946;2023-03-13T08:43:52;99952.81;;;11.17;100.00
51468;BME280;37545;45.302;-122.946;2023-03-13T08:46:22;99956.22;;;11.15;100.00
51468;BME280;37545;45.302;-122.946;2023-03-13T08:48:52;99945.00;;;11.14;100.00
51468;BME280;37545;45.302;-122.946;2023-03-13T08:51:22;99955.38;;;11.14;100.00
51468;BME280;37545;45.302;-122.946;2023-03-13T08:53:51;99946.75;;;11.14;100.00
51468;BME280;37545;45.302;-122.946;2023-03-13T08:56:28;99931.97;;;11.06;100.00
51468;BME280;37545;45.302;-122.946;2023-03-13T08:58:58;99952.75;;;11.13;100.00
51468;BME280;37545;45.302;-122.946;2023-03-13T09:01:30;99952.78;;;11.14;100.00
51468;BME280;37545;45.302;-122.946;2023-03-13T09:03:59;99953.59;;;11.11;100.00
51468;BME280;37545;45.302;-122.946;2023-03-13T09:06:27;99950.16;;;11.11;100.00
51468;BME280;37545;45.302;-122.946;2023-03-13T09:08:56;99949.28;;;11.12;100.00
51468;BME280;37545;45.302;-122.946;2023-03-13T09:11:25;99957.91;;;11.13;100.00
51468;BME280;37545;45.302;-122.946;2023-03-13T09:13:55;99958.78;;;11.13;100.00
51468;BME280;37545;45.302;-122.946;2023-03-13T09:16:26;99943.22;;;11.10;100.00
51468;BME280;37545;45.302;-122.946;2023-03-13T09:18:57;99952.72;;;11.09;100.00
51468;BME280;37545;45.302;-122.946;2023-03-13T09:21:27;99940.59;;;11.08;100.00
51468;BME280;37545;45.302;-122.946;2023-03-13T09:23:56;99944.94;;;11.09;100.00
51468;BME280;37545;45.302;-122.946;2023-03-13T09:26:28;99940.53;;;11.04;100.00
51468;BME280;37545;45.302;-122.946;2023-03-13T09:28:57;99938.75;;;10.98;100.00
51468;BME280;37545;45.302;-122.946;2023-03-13T09:31:27;99941.28;;;10.95;100.00
51468;BME280;37545;45.302;-122.946;2023-03-13T09:33:58;99942.94;;;10.92;100.00
51468;BME280;37545;45.302;-122.946;2023-03-13T09:36:27;99938.59;;;10.89;100.00
51468;BME280;37545;45.302;-122.946;2023-03-13T09:38:56;99940.25;;;10.84;100.00
51468;BME280;37545;45.302;-122.946;2023-03-13T09:41:31;99934.16;;;10.80;100.00
51468;BME280;37545;45.302;-122.946;2023-03-13T09:44:09;99930.66;;;10.78;100.00
51468;BME280;37545;45.302;-122.946;2023-03-13T09:46:42;99924.66;;;10.79;100.00
51468;BME280;37545;45.302;-122.946;2023-03-13T09:49:24;99924.66;;;10.79;100.00
51468;BME280;37545;45.302;-122.946;2023-03-13T09:52:02;99917.72;;;10.77;100.00
51468;BME280;37545;45.302;-122.946;2023-03-13T09:54:36;99912.56;;;10.77;100.00
51468;BME280;37545;45.302;-122.946;2023-03-13T09:57:06;99919.44;;;10.78;100.00
51468;BME280;37545;45.302;-122.946;2023-03-13T09:59:45;99924.66;;;10.81;100.00
51468;BME280;37545;45.302;-122.946;2023-03-13T10:02:34;99919.56;;;10.85;100.00
51468;BME280;37545;45.302;-122.946;2023-03-13T10:05:19;99910.09;;;10.87;100.00
51468;BME280;37545;45.302;-122.946;2023-03-13T10:07:55;99907.53;;;10.89;100.00
51468;BME280;37545;45.302;-122.946;2023-03-13T10:10:32;99894.56;;;10.86;100.00
51468;BME280;37545;45.302;-122.946;2023-03-13T10:13:14;99906.75;;;10.93;100.00
51468;BME280;37545;45.302;-122.946;2023-03-13T10:15:49;99891.19;;;10.92;100.00
51468;BME280;37545;45.302;-122.946;2023-03-13T10:18:21;99894.66;;;10.94;100.00
51468;BME280;37545;45.302;-122.946;2023-03-13T10:20:52;99893.84;;;10.96;100.00
51468;BME280;37545;45.302;-122.946;2023-03-13T10:23:28;99879.25;;;11.00;100.00
51468;BME280;37545;45.302;-122.946;2023-03-13T10:26:02;99885.31;;;11.03;100.00
51468;BME280;37545;45.302;-122.946;2023-03-13T10:28:31;99877.59;;;11.06;100.00
51468;BME280;37545;45.302;-122.946;2023-03-13T10:31:03;99882.81;;;11.09;100.00
51468;BME280;37545;45.302;-122.946;2023-03-13T10:33:36;99874.22;;;11.12;100.00
51468;BME280;37545;45.302;-122.946;2023-03-13T10:36:08;99875.94;;;11.13;100.00
51468;BME280;37545;45.302;-122.946;2023-03-13T10:38:48;99875.13;;;11.16;100.00
51468;BME280;37545;45.302;-122.946;2023-03-13T10:41:25;99862.13;;;11.11;100.00
51468;BME280;37545;45.302;-122.946;2023-03-13T10:44:01;99864.78;;;11.16;100.00
51468;BME280;37545;45.302;-122.946;2023-03-13T10:46:31;99863.00;;;11.11;100.00
51468;BME280;37545;45.302;-122.946;2023-03-13T10:49:10;99867.31;;;11.11;100.00
51468;BME280;37545;45.302;-122.946;2023-03-13T10:51:47;99864.72;;;11.13;100.00
51468;BME280;37545;45.302;-122.946;2023-03-13T10:54:21;99859.59;;;11.16;100.00
51468;BME280;37545;45.302;-122.946;2023-03-13T10:57:06;99852.69;;;11.16;100.00
51468;BME280;37545;45.302;-122.946;2023-03-13T10:59:45;99841.47;;;11.16;100.00
51468;BME280;37545;45.302;-122.946;2023-03-13T11:02:21;99838.03;;;11.17;100.00
51468;BME280;37545;45.302;-122.946;2023-03-13T11:04:55;99842.31;;;11.15;100.00
51468;BME280;37545;45.302;-122.946;2023-03-13T11:07:32;99838.78;;;11.08;100.00
51468;BME280;37545;45.302;-122.946;2023-03-13T11:10:17;99834.47;;;11.07;100.00
51468;BME280;37545;45.302;-122.946;2023-03-13T11:12:49;99840.47;;;11.04;100.00
51468;BME280;37545;45.302;-122.946;2023-03-13T11:15:20;99850.78;;;11.03;100.00
51468;BME280;37545;45.302;-122.946;2023-03-13T11:17:53;99840.41;;;11.01;100.00
51468;BME280;37545;45.302;-122.946;2023-03-13T11:20:27;99843.84;;;10.97;100.00
51468;BME280;37545;45.302;-122.946;2023-03-13T11:23:13;99842.88;;;10.92;100.00
51468;BME280;37545;45.302;-122.946;2023-03-13T11:26:00;99837.63;;;10.86;100.00
51468;BME280;37545;45.302;-122.946;2023-03-13T11:28:47;99841.84;;;10.81;100.00
51468;BME280;37545;45.302;-122.946;2023-03-13T11:31:26;99842.69;;;10.78;100.00
51468;BME280;37545;45.302;-122.946;2023-03-13T11:34:05;99836.63;;;10.75;100.00
51468;BME280;37545;45.302;-122.946;2023-03-13T11:36:42;99835.72;;;10.74;100.00
51468;BME280;37545;45.302;-122.946;2023-03-13T11:42:30;99837.44;;;10.74;100.00
51468;BME280;37545;45.302;-122.946;2023-03-13T11:45:21;99844.34;;;10.73;100.00
51468;BME280;37545;45.302;-122.946;2023-03-13T11:48:02;99859.84;;;10.70;100.00
51468;BME280;37545;45.302;-122.946;2023-03-13T11:50:39;99860.66;;;10.67;100.00
51468;BME280;37545;45.302;-122.946;2023-03-13T11:53:26;99859.75;;;10.64;100.00
51468;BME280;37545;45.302;-122.946;2023-03-13T11:56:07;99861.47;;;10.63;100.00
51468;BME280;37545;45.302;-122.946;2023-03-13T11:59:02;99864.81;;;10.56;100.00
51468;BME280;37545;45.302;-122.946;2023-03-13T12:01:37;99855.28;;;10.55;100.00
51468;BME280;37545;45.302;-122.946;2023-03-13T12:04:12;99855.28;;;10.55;100.00
51468;BME280;37545;45.302;-122.946;2023-03-13T12:06:49;99857.00;;;10.55;100.00
51468;BME280;37545;45.302;-122.946;2023-03-13T12:09:24;99848.41;;;10.54;100.00
51468;BME280;37545;45.302;-122.946;2023-03-13T12:11:56;99847.53;;;10.55;100.00
51468;BME280;37545;45.302;-122.946;2023-03-13T12:14:34;99845.81;;;10.56;100.00
51468;BME280;37545;45.302;-122.946;2023-03-13T12:17:07;99850.13;;;10.55;100.00
51468;BME280;37545;45.302;-122.946;2023-03-13T12:19:42;99844.97;;;10.57;100.00
51468;BME280;37545;45.302;-122.946;2023-03-13T12:22:16;99855.34;;;10.60;100.00
51468;BME280;37545;45.302;-122.946;2023-03-13T12:24:52;99855.34;;;10.58;100.00
51468;BME280;37545;45.302;-122.946;2023-03-13T12:27:26;99862.22;;;10.56;100.00
51468;BME280;37545;45.302;-122.946;2023-03-13T12:30:03;99857.03;;;10.56;100.00
51468;BME280;37545;45.302;-122.946;2023-03-13T12:32:36;99861.44;;;10.62;100.00
51468;BME280;37545;45.302;-122.946;2023-03-13T12:35:13;99858.88;;;10.63;100.00
51468;BME280;37545;45.302;-122.946;2023-03-13T12:37:47;99869.22;;;10.63;100.00
51468;BME280;37545;45.302;-122.946;2023-03-13T12:40:22;99870.91;;;10.61;100.00